createdAt,value
2022-11-17T00:00:29.918Z,4.80
2022-11-17T00:03:15.937Z,4.74
2022-11-17T00:06:06.076Z,4.75
2022-11-17T00:08:52.711Z,4.72
2022-11-17T00:11:56.749Z,4.70
2022-11-17T00:14:42.853Z,4.74
2022-11-17T00:17:28.230Z,4.77
2022-11-17T00:20:32.184Z,4.79
2022-11-17T00:23:17.544Z,4.75
2022-11-17T00:26:02.905Z,4.74
2022-11-17T00:28:54.976Z,4.71
2022-11-17T00:32:06.427Z,4.59
2022-11-17T00:34:51.773Z,4.54
2022-11-17T00:37:39.195Z,4.49
2022-11-17T00:40:24.273Z,4.42
2022-11-17T00:43:09.764Z,4.41
2022-11-17T00:45:55.134Z,4.40
2022-11-17T00:48:40.490Z,4.41
2022-11-17T00:51:25.519Z,4.41
2022-11-17T00:54:12.515Z,4.42
2022-11-17T00:56:58.026Z,4.36
2022-11-17T00:59:43.649Z,4.32
2022-11-17T01:02:28.797Z,4.31
2022-11-17T01:05:14.270Z,4.28
2022-11-17T01:07:59.354Z,4.29
2022-11-17T01:10:44.932Z,4.32
2022-11-17T01:13:30.117Z,4.31
2022-11-17T01:16:18.861Z,4.33
2022-11-17T01:19:04.297Z,4.38
2022-11-17T01:21:49.633Z,4.38
2022-11-17T01:24:34.917Z,4.30
2022-11-17T01:27:20.339Z,4.25
2022-11-17T01:30:06.244Z,4.22
2022-11-17T01:32:51.460Z,4.26
2022-11-17T01:35:36.306Z,4.16
2022-11-17T01:38:22.283Z,4.17
2022-11-17T01:41:14.013Z,4.16
2022-11-17T01:44:37.320Z,4.18
2022-11-17T01:47:31.835Z,4.14
2022-11-17T01:50:36.030Z,4.21
2022-11-17T01:53:23.176Z,4.22
2022-11-17T01:56:13.802Z,4.21
2022-11-17T01:59:05.361Z,4.21
2022-11-17T02:01:57.015Z,4.21
2022-11-17T02:04:53.388Z,4.21
2022-11-17T02:07:42.124Z,4.23
2022-11-17T02:10:30.808Z,4.16
2022-11-17T02:13:16.301Z,4.10
2022-11-17T02:16:01.868Z,4.10
2022-11-17T02:18:48.563Z,4.07
2022-11-17T02:21:51.874Z,4.09
2022-11-17T02:24:50.589Z,4.10
2022-11-17T02:27:54.694Z,4.12
2022-11-17T02:31:17.940Z,4.18
2022-11-17T02:34:19.442Z,4.18
2022-11-17T02:37:18.643Z,4.20
2022-11-17T02:40:10.831Z,4.15
2022-11-17T02:43:19.934Z,4.11
2022-11-17T02:46:18.042Z,4.07
2022-11-17T02:49:12.197Z,4.05
2022-11-17T02:51:59.130Z,4.04
2022-11-17T02:54:44.091Z,4.06
2022-11-17T02:57:40.716Z,4.03
2022-11-17T03:00:28.061Z,3.95
2022-11-17T03:03:23.218Z,3.97
2022-11-17T03:07:05.749Z,4.03
2022-11-17T03:10:05.734Z,4.04
2022-11-17T03:13:20.992Z,4.05
2022-11-17T03:16:25.625Z,4.01
2022-11-17T03:19:28.589Z,3.98
2022-11-17T03:22:24.726Z,3.99
2022-11-17T03:25:14.722Z,3.99
2022-11-17T03:28:04.728Z,4.02
2022-11-17T03:30:52.348Z,4.03
2022-11-17T03:33:40.396Z,4.07
2022-11-17T03:36:38.615Z,4.08
2022-11-17T03:39:30.584Z,4.02
2022-11-17T03:42:22.861Z,3.98
2022-11-17T03:45:10.900Z,4.01
2022-11-17T03:48:07.237Z,4.07
2022-11-17T03:51:07.224Z,4.05
2022-11-17T03:53:54.658Z,3.97
2022-11-17T03:56:55.392Z,3.96
2022-11-17T03:59:52.944Z,4.07
2022-11-17T04:02:41.773Z,4.05
2022-11-17T04:05:27.661Z,4.02
2022-11-17T04:08:12.719Z,4.10
2022-11-17T04:11:16.748Z,4.13
2022-11-17T04:14:20.367Z,4.03
2022-11-17T04:17:05.725Z,4.02
2022-11-17T04:19:50.833Z,4.00
2022-11-17T04:22:36.530Z,3.93
2022-11-17T04:25:41.951Z,3.91
2022-11-17T04:28:37.886Z,3.91
2022-11-17T04:31:25.451Z,3.98
2022-11-17T04:34:10.819Z,4.00
2022-11-17T04:36:56.050Z,3.99
2022-11-17T04:39:41.153Z,4.04
2022-11-17T04:42:26.550Z,4.04
2022-11-17T04:45:11.674Z,4.09
2022-11-17T04:47:57.055Z,4.10
2022-11-17T04:50:42.625Z,4.08
2022-11-17T04:53:29.888Z,4.09
2022-11-17T04:56:15.945Z,4.10
2022-11-17T04:59:01.393Z,4.07
2022-11-17T05:01:47.124Z,4.08
2022-11-17T05:04:51.083Z,4.01
2022-11-17T05:07:36.435Z,4.00
2022-11-17T05:10:41.825Z,4.03
2022-11-17T05:13:27.396Z,4.05
2022-11-17T05:16:31.229Z,4.07
2022-11-17T05:19:22.202Z,4.02
2022-11-17T05:22:27.694Z,4.04
2022-11-17T05:25:12.749Z,4.06
2022-11-17T05:27:58.225Z,4.10
2022-11-17T05:30:43.574Z,4.10
2022-11-17T05:33:32.394Z,4.10
2022-11-17T05:36:24.207Z,4.12
2022-11-17T05:39:10.074Z,4.14
2022-11-17T05:41:55.405Z,4.12
2022-11-17T05:44:40.740Z,4.11
2022-11-17T05:47:26.118Z,4.13
2022-11-17T05:50:11.467Z,4.15
2022-11-17T05:52:56.918Z,4.28
2022-11-17T05:55:41.895Z,4.32
2022-11-17T05:58:30.156Z,4.31
2022-11-17T06:01:18.745Z,4.25
2022-11-17T06:04:06.765Z,4.27
2022-11-17T06:06:52.291Z,4.23
2022-11-17T06:09:40.443Z,4.25
2022-11-17T06:12:25.612Z,4.22
2022-11-17T06:15:10.863Z,4.22
2022-11-17T06:18:08.413Z,4.24
2022-11-17T06:20:53.960Z,4.25
2022-11-17T06:23:39.341Z,4.30
2022-11-17T06:26:24.345Z,4.31
2022-11-17T06:29:11.164Z,4.31
2022-11-17T06:31:58.186Z,4.30
2022-11-17T06:34:51.959Z,4.31
2022-11-17T06:37:40.177Z,4.28
2022-11-17T06:40:26.399Z,4.30
2022-11-17T06:43:11.961Z,4.35
2022-11-17T06:45:57.109Z,4.31
2022-11-17T06:48:42.566Z,4.30
2022-11-17T06:51:28.046Z,4.28
2022-11-17T06:54:14.617Z,4.35
2022-11-17T06:57:00.118Z,4.36
2022-11-17T06:59:45.292Z,4.35
2022-11-17T07:02:31.580Z,4.38
2022-11-17T07:05:17.250Z,4.39
2022-11-17T07:08:07.352Z,4.40
2022-11-17T07:10:57.118Z,4.42
2022-11-17T07:13:43.199Z,4.42
2022-11-17T07:16:29.567Z,4.46
2022-11-17T07:19:15.034Z,4.50
2022-11-17T07:22:00.103Z,4.53
2022-11-17T07:24:45.376Z,4.54
2022-11-17T07:27:32.561Z,4.56
2022-11-17T07:30:17.944Z,4.59
2022-11-17T07:33:03.209Z,4.58
2022-11-17T07:35:48.726Z,4.60
2022-11-17T07:38:35.209Z,4.65
2022-11-17T07:41:20.800Z,4.69
2022-11-17T07:44:06.150Z,4.71
2022-11-17T07:46:51.640Z,4.71
2022-11-17T07:49:36.925Z,4.72
2022-11-17T07:52:22.329Z,4.77
2022-11-17T07:55:08.119Z,4.77
2022-11-17T07:57:58.401Z,4.78
2022-11-17T08:00:43.587Z,4.80
2022-11-17T08:03:28.783Z,4.80
2022-11-17T08:06:14.083Z,4.81
2022-11-17T08:08:59.142Z,4.81
2022-11-17T08:11:44.550Z,4.80
2022-11-17T08:14:29.937Z,4.82
2022-11-17T08:17:15.400Z,4.83
2022-11-17T08:20:00.740Z,4.85
2022-11-17T08:22:46.852Z,4.89
2022-11-17T08:25:32.291Z,4.89
2022-11-17T08:28:17.414Z,4.87
2022-11-17T08:31:05.088Z,4.92
2022-11-17T08:33:50.274Z,4.93
2022-11-17T08:36:35.885Z,4.91
2022-11-17T08:39:21.118Z,4.89
2022-11-17T08:42:06.113Z,4.92
2022-11-17T08:44:51.463Z,4.91
2022-11-17T08:47:37.796Z,4.78
2022-11-17T08:50:23.268Z,4.84
2022-11-17T08:53:14.395Z,4.90
2022-11-17T08:55:59.861Z,4.93
2022-11-17T08:58:45.473Z,4.96
2022-11-17T09:01:30.941Z,5.02
2022-11-17T09:04:16.411Z,4.99
2022-11-17T09:07:01.811Z,5.02
2022-11-17T09:09:48.410Z,5.01
2022-11-17T09:12:33.745Z,5.04
2022-11-17T09:15:18.868Z,5.06
2022-11-17T09:18:04.320Z,5.07
2022-11-17T09:20:49.450Z,5.05
2022-11-17T09:23:35.792Z,5.04
2022-11-17T09:26:21.493Z,5.01
2022-11-17T09:29:08.140Z,5.02
2022-11-17T09:31:53.352Z,5.01
2022-11-17T09:34:38.602Z,4.99
2022-11-17T09:37:26.358Z,5.05
2022-11-17T09:40:18.180Z,5.11
2022-11-17T09:43:25.069Z,5.12
2022-11-17T09:46:27.607Z,5.12
2022-11-17T09:49:25.277Z,5.11
2022-11-17T09:52:16.632Z,5.13
2022-11-17T09:55:07.947Z,5.16
2022-11-17T09:58:04.325Z,5.17
2022-11-17T10:00:52.042Z,5.19
2022-11-17T10:03:43.846Z,5.19
2022-11-17T10:06:31.946Z,5.25
2022-11-17T10:09:36.291Z,5.30
2022-11-17T10:12:31.775Z,5.35
2022-11-17T10:15:31.224Z,5.28
2022-11-17T10:18:17.174Z,5.28
2022-11-17T10:21:05.175Z,5.27
2022-11-17T10:23:59.659Z,5.25
2022-11-17T10:26:49.284Z,5.24
2022-11-17T10:29:34.605Z,5.24
2022-11-17T10:32:20.118Z,5.27
2022-11-17T10:35:35.456Z,5.20
2022-11-17T10:38:23.084Z,5.20
2022-11-17T10:41:15.600Z,5.21
2022-11-17T10:44:06.080Z,5.22
2022-11-17T10:47:04.076Z,5.21
2022-11-17T10:50:29.934Z,5.24
2022-11-17T10:53:38.112Z,5.16
2022-11-17T10:56:26.734Z,5.21
2022-11-17T10:59:20.316Z,5.26
2022-11-17T11:02:27.043Z,5.29
2022-11-17T11:05:21.178Z,5.33
2022-11-17T11:08:23.275Z,5.33
2022-11-17T11:11:36.369Z,5.31
2022-11-17T11:14:39.140Z,5.28
2022-11-17T11:17:27.884Z,5.33
2022-11-17T11:20:19.876Z,5.36
2022-11-17T11:23:42.706Z,5.36
2022-11-17T11:26:48.724Z,5.34
2022-11-17T11:29:45.803Z,5.38
2022-11-17T11:32:40.274Z,5.42
2022-11-17T11:35:28.582Z,5.40
2022-11-17T11:38:29.876Z,5.36
2022-11-17T11:41:28.631Z,5.40
2022-11-17T11:44:30.941Z,5.41
2022-11-17T11:47:39.728Z,5.39
2022-11-17T11:50:30.150Z,5.36
2022-11-17T11:53:24.387Z,5.35
2022-11-17T11:56:17.103Z,5.35
2022-11-17T11:59:07.580Z,5.37
2022-11-17T12:02:02.171Z,5.40
2022-11-17T12:05:00.086Z,5.37
2022-11-17T12:07:59.090Z,5.37
2022-11-17T12:11:30.473Z,5.37
2022-11-17T12:14:18.803Z,5.37
2022-11-17T12:17:13.156Z,5.41
2022-11-17T12:20:07.517Z,5.43
2022-11-17T12:23:04.836Z,5.43
2022-11-17T12:25:57.448Z,5.41
2022-11-17T12:28:42.557Z,5.35
2022-11-17T12:31:44.870Z,5.35
2022-11-17T12:34:35.302Z,5.43
2022-11-17T12:37:22.589Z,5.42
2022-11-17T12:40:28.430Z,5.40
2022-11-17T12:43:17.069Z,5.44
2022-11-17T12:46:22.715Z,5.47
2022-11-17T12:49:27.196Z,5.47
2022-11-17T12:52:26.556Z,5.44
2022-11-17T12:55:22.977Z,5.47
2022-11-17T12:58:45.827Z,5.36
2022-11-17T13:01:54.606Z,5.35
2022-11-17T13:04:49.931Z,5.39
2022-11-17T13:07:35.373Z,5.31
2022-11-17T13:10:29.355Z,5.28
2022-11-17T13:13:19.424Z,5.32
2022-11-17T13:16:04.780Z,5.24
2022-11-17T13:18:50.147Z,5.27
2022-11-17T13:21:35.447Z,5.29
2022-11-17T13:24:35.918Z,5.30
2022-11-17T13:27:31.452Z,5.38
2022-11-17T13:30:28.672Z,5.35
2022-11-17T13:33:21.828Z,5.36
2022-11-17T13:36:08.776Z,5.39
2022-11-17T13:38:57.274Z,5.41
2022-11-17T13:41:42.796Z,5.39
2022-11-17T13:44:28.709Z,5.27
2022-11-17T13:47:40.773Z,5.31
2022-11-17T13:50:26.691Z,5.26
2022-11-17T13:53:23.504Z,5.31
2022-11-17T13:56:20.975Z,5.29
2022-11-17T13:59:23.856Z,5.25
2022-11-17T14:02:21.336Z,5.21
2022-11-17T14:05:17.648Z,5.25
2022-11-17T14:08:22.802Z,5.24
2022-11-17T14:11:10.926Z,5.22
2022-11-17T14:14:00.982Z,5.17
2022-11-17T14:16:46.590Z,5.15
2022-11-17T14:19:34.003Z,5.10
2022-11-17T14:22:31.303Z,5.07
2022-11-17T14:25:17.063Z,5.03
2022-11-17T14:28:02.425Z,5.04
2022-11-17T14:30:51.978Z,5.03
2022-11-17T14:33:37.134Z,5.02
2022-11-17T14:36:22.886Z,4.99
2022-11-17T14:39:14.646Z,5.00
2022-11-17T14:42:00.394Z,5.01
2022-11-17T14:44:46.191Z,4.98
2022-11-17T14:47:31.526Z,4.98
2022-11-17T14:50:18.275Z,4.97
2022-11-17T14:53:04.354Z,4.98
2022-11-17T14:55:49.846Z,4.99
2022-11-17T14:58:35.152Z,4.93
2022-11-17T15:01:29.372Z,4.91
2022-11-17T15:04:48.204Z,4.89
2022-11-17T15:07:21.356Z,4.88
2022-11-17T15:10:08.277Z,4.82
2022-11-17T15:12:53.736Z,4.81
2022-11-17T15:15:39.296Z,4.76
2022-11-17T15:18:24.650Z,4.75
2022-11-17T15:21:10.445Z,4.76
2022-11-17T15:23:55.868Z,4.75
2022-11-17T15:26:41.159Z,4.74
2022-11-17T15:29:26.645Z,4.65
2022-11-17T15:32:11.968Z,4.62
2022-11-17T15:34:57.217Z,4.63
2022-11-17T15:37:42.644Z,4.60
2022-11-17T15:40:28.092Z,4.64
2022-11-17T15:43:13.487Z,4.60
2022-11-17T15:46:07.070Z,4.52
2022-11-17T15:48:53.103Z,4.49
2022-11-17T15:51:38.602Z,4.44
2022-11-17T15:54:23.804Z,4.46
2022-11-17T15:57:08.973Z,4.46
2022-11-17T15:59:54.548Z,4.41
2022-11-17T16:02:42.119Z,4.41
2022-11-17T16:05:27.568Z,4.38
2022-11-17T16:08:12.994Z,4.29
2022-11-17T16:10:58.323Z,4.29
2022-11-17T16:13:43.550Z,4.29
2022-11-17T16:16:32.055Z,4.18
2022-11-17T16:19:18.922Z,4.23
2022-11-17T16:22:04.230Z,4.21
2022-11-17T16:24:49.308Z,4.18
2022-11-17T16:27:34.739Z,4.14
2022-11-17T16:30:20.164Z,4.12
2022-11-17T16:33:14.196Z,4.16
2022-11-17T16:36:07.347Z,4.15
2022-11-17T16:39:01.822Z,4.16
2022-11-17T16:41:50.222Z,4.14
2022-11-17T16:44:35.625Z,4.16
2022-11-17T16:47:20.877Z,4.17
2022-11-17T16:50:06.829Z,4.05
2022-11-17T16:52:52.130Z,4.06
2022-11-17T16:55:37.798Z,4.01
2022-11-17T16:58:23.049Z,3.99
2022-11-17T17:01:17.297Z,3.94
2022-11-17T17:04:06.567Z,3.97
2022-11-17T17:06:52.099Z,4.01
2022-11-17T17:09:37.800Z,4.03
2022-11-17T17:12:23.549Z,4.00
2022-11-17T17:15:10.170Z,3.98
2022-11-17T17:17:55.841Z,3.95
2022-11-17T17:20:50.013Z,3.97
2022-11-17T17:23:35.544Z,4.01
2022-11-17T17:26:23.088Z,3.96
2022-11-17T17:29:09.124Z,3.99
2022-11-17T17:31:55.229Z,3.95
2022-11-17T17:34:40.558Z,3.92
2022-11-17T17:37:25.841Z,3.95
2022-11-17T17:40:11.553Z,3.86
2022-11-17T17:42:56.813Z,3.86
2022-11-17T17:45:42.344Z,3.80
2022-11-17T17:48:28.374Z,3.76
2022-11-17T17:51:16.429Z,3.78
2022-11-17T17:54:02.040Z,3.77
2022-11-17T17:56:47.844Z,3.79
2022-11-17T17:59:33.235Z,3.71
2022-11-17T18:02:18.393Z,3.66
2022-11-17T18:05:04.175Z,3.64
2022-11-17T18:07:49.877Z,3.58
2022-11-17T18:10:36.180Z,3.65
2022-11-17T18:13:21.574Z,3.56
2022-11-17T18:16:18.963Z,3.52
2022-11-17T18:19:06.876Z,3.47
2022-11-17T18:21:51.791Z,3.50
2022-11-17T18:24:37.211Z,3.48
2022-11-17T18:27:22.632Z,3.46
2022-11-17T18:30:08.621Z,3.48
2022-11-17T18:32:53.754Z,3.46
2022-11-17T18:35:39.210Z,3.41
2022-11-17T18:38:24.334Z,3.41
2022-11-17T18:41:12.704Z,3.45
2022-11-17T18:43:58.789Z,3.47
2022-11-17T18:46:44.354Z,3.47
2022-11-17T18:49:31.151Z,3.45
2022-11-17T18:52:16.405Z,3.44
2022-11-17T18:55:01.979Z,3.46
2022-11-17T18:57:47.154Z,3.48
2022-11-17T19:00:32.618Z,3.41
2022-11-17T19:03:17.732Z,3.41
2022-11-17T19:06:04.596Z,3.36
2022-11-17T19:08:50.451Z,3.37
2022-11-17T19:11:36.072Z,3.38
2022-11-17T19:14:21.226Z,3.40
2022-11-17T19:17:06.742Z,3.42
2022-11-17T19:19:52.008Z,3.37
2022-11-17T19:22:37.443Z,3.38
2022-11-17T19:25:23.737Z,3.39
2022-11-17T19:28:12.454Z,3.38
2022-11-17T19:31:02.883Z,3.38
2022-11-17T19:33:49.286Z,3.42
2022-11-17T19:36:34.686Z,3.45
2022-11-17T19:39:20.182Z,3.41
2022-11-17T19:42:05.871Z,3.42
2022-11-17T19:44:51.561Z,3.45
2022-11-17T19:47:36.759Z,3.54
2022-11-17T19:50:22.141Z,3.59
2022-11-17T19:53:07.253Z,3.51
2022-11-17T19:55:52.543Z,3.47
2022-11-17T19:58:37.863Z,3.43
2022-11-17T20:01:25.496Z,3.41
2022-11-17T20:04:11.109Z,3.39
2022-11-17T20:06:56.395Z,3.31
2022-11-17T20:09:41.706Z,3.28
2022-11-17T20:12:26.925Z,3.20
2022-11-17T20:15:33.049Z,3.20
2022-11-17T20:18:17.361Z,3.19
2022-11-17T20:21:06.593Z,3.15
2022-11-17T20:23:52.115Z,3.13
2022-11-17T20:26:40.588Z,3.15
2022-11-17T20:29:25.736Z,3.10
2022-11-17T20:32:12.066Z,2.98
2022-11-17T20:34:57.285Z,2.98
2022-11-17T20:37:42.687Z,2.96
2022-11-17T20:40:28.804Z,2.95
2022-11-17T20:43:14.204Z,2.98
2022-11-17T20:45:59.762Z,3.01
2022-11-17T20:48:45.293Z,2.99
2022-11-17T20:51:30.545Z,3.00
2022-11-17T20:54:16.012Z,3.01
2022-11-17T20:57:01.363Z,2.93
2022-11-17T20:59:46.650Z,2.91
2022-11-17T21:02:31.984Z,2.93
2022-11-17T21:05:17.079Z,2.92
2022-11-17T21:08:02.615Z,2.92
2022-11-17T21:10:48.153Z,2.94
2022-11-17T21:13:34.957Z,2.95
2022-11-17T21:16:20.358Z,2.97
2022-11-17T21:19:06.097Z,3.04
